Strona główna
METAR-TAF:

METAR-TAF

Lotnisko :

Barra do Garças, Mato Grosso, Brazylia

Szerokość geograficzna: 15-52S, Długość geograficzna: 052-23W, wysokość: 350 m

Aktualna obserwacja pogody

Raport powstał 3 godziny i 40 minut temu, godzina 04:00 UTC
Cisza
Temperatura 19°C
Wilgotność 83%
Ciśnienie 1018 hPa
Widzialność 10 km lub więcej
Brak chmur poniżej 1500 m i brak chmur cumulonimbus

METAR: SBBW 220400Z 00000KT CAVOK 19/16 Q1018

czas: 03:40 (07:40 UTC)

Prognoza

Raport powstał 3 godziny i 40 minut temu, godzina 04:00 UTC
Prognoza ważna od 22 godzina 06 UTC do 22 godzina 18 UTC
Wiatr kt od północ
Widzialność 10 km lub więcej
Brak chmur poniżej 1500 m i brak chmur cumulonimbus
Stopniowe zmiany
od 22 godzina 14 UTC do 22 godzina 16 UTC
Wiatr 5 kt od południowy wschód

TAF: SBBW 220400Z 2206/2218 00000KT CAVOK TN15/2208Z TX32/2217Z BECMG 2214/2216 13005KT RMK PCQ

Obserwacja i prognoza pogody dla ponad 4000 lotnisk (raport METAR i TAF).

Dostępne stacje oznaczono żółtymi i czerwonymi punktami na mapie.

Najedź kursorem aby zobaczyć nazwę stacji.

Kliknij aby zobaczyć obserwacje i prognozy pogody.

Aby zmienić mapę: kliknij na zielony przycisk z czarnym krzyżykiem, aby powiększyć; na zielony przycisk z myślnikiem, aby pomniejszyć; na zielone strzałki, aby przejść do map sąsiednich.


METAR-TAF: